sensor_id;sensor_type;location;lat;lon;timestamp;temperature;humidity
74224;SHT31;62585;49.706;18.216;2022-12-18T00:01:49;-3.77;84.49
74224;SHT31;62585;49.706;18.216;2022-12-18T00:04:20;-3.70;84.11
74224;SHT31;62585;49.706;18.216;2022-12-18T00:06:46;-3.70;84.12
74224;SHT31;62585;49.706;18.216;2022-12-18T00:09:12;-3.71;84.29
74224;SHT31;62585;49.706;18.216;2022-12-18T00:11:38;-3.68;84.04
74224;SHT31;62585;49.706;18.216;2022-12-18T00:14:04;-3.78;84.10
74224;SHT31;62585;49.706;18.216;2022-12-18T00:16:30;-3.82;84.24
74224;SHT31;62585;49.706;18.216;2022-12-18T00:18:59;-3.87;84.32
74224;SHT31;62585;49.706;18.216;2022-12-18T00:21:26;-3.82;84.53
74224;SHT31;62585;49.706;18.216;2022-12-18T00:23:52;-3.80;84.34
74224;SHT31;62585;49.706;18.216;2022-12-18T00:26:25;-3.81;84.31
74224;SHT31;62585;49.706;18.216;2022-12-18T00:28:52;-3.90;83.88
74224;SHT31;62585;49.706;18.216;2022-12-18T00:31:20;-3.94;84.19
74224;SHT31;62585;49.706;18.216;2022-12-18T00:33:47;-3.99;84.52
74224;SHT31;62585;49.706;18.216;2022-12-18T00:38:41;-3.91;84.14
74224;SHT31;62585;49.706;18.216;2022-12-18T00:41:07;-3.94;84.16
74224;SHT31;62585;49.706;18.216;2022-12-18T00:43:34;-3.95;84.40
74224;SHT31;62585;49.706;18.216;2022-12-18T00:46:00;-3.98;85.06
74224;SHT31;62585;49.706;18.216;2022-12-18T00:48:26;-3.95;84.92
74224;SHT31;62585;49.706;18.216;2022-12-18T00:50:51;-4.01;85.07
74224;SHT31;62585;49.706;18.216;2022-12-18T00:53:18;-3.95;84.55
74224;SHT31;62585;49.706;18.216;2022-12-18T00:55:43;-4.02;84.70
74224;SHT31;62585;49.706;18.216;2022-12-18T00:58:11;-4.05;84.41
74224;SHT31;62585;49.706;18.216;2022-12-18T01:00:37;-4.03;84.52
74224;SHT31;62585;49.706;18.216;2022-12-18T01:03:04;-4.03;84.32
74224;SHT31;62585;49.706;18.216;2022-12-18T01:05:31;-4.06;84.82
74224;SHT31;62585;49.706;18.216;2022-12-18T01:07:57;-4.06;84.91
74224;SHT31;62585;49.706;18.216;2022-12-18T01:10:23;-4.13;85.12
74224;SHT31;62585;49.706;18.216;2022-12-18T01:12:49;-4.05;85.30
74224;SHT31;62585;49.706;18.216;2022-12-18T01:15:15;-4.01;85.00
74224;SHT31;62585;49.706;18.216;2022-12-18T01:17:42;-4.06;84.91
74224;SHT31;62585;49.706;18.216;2022-12-18T01:20:09;-3.99;84.87
74224;SHT31;62585;49.706;18.216;2022-12-18T01:22:36;-4.02;84.89
74224;SHT31;62585;49.706;18.216;2022-12-18T01:25:03;-4.02;84.89
74224;SHT31;62585;49.706;18.216;2022-12-18T01:27:30;-4.02;84.83
74224;SHT31;62585;49.706;18.216;2022-12-18T01:29:55;-4.03;84.19
74224;SHT31;62585;49.706;18.216;2022-12-18T01:32:21;-4.08;84.84
74224;SHT31;62585;49.706;18.216;2022-12-18T01:34:47;-3.99;84.53
74224;SHT31;62585;49.706;18.216;2022-12-18T01:37:13;-3.99;84.50
74224;SHT31;62585;49.706;18.216;2022-12-18T01:39:39;-4.08;84.18
74224;SHT31;62585;49.706;18.216;2022-12-18T01:42:11;-4.16;83.73
74224;SHT31;62585;49.706;18.216;2022-12-18T01:44:58;-4.20;84.48
74224;SHT31;62585;49.706;18.216;2022-12-18T01:47:46;-4.26;85.05
74224;SHT31;62585;49.706;18.216;2022-12-18T01:50:16;-4.30;85.55
74224;SHT31;62585;49.706;18.216;2022-12-18T01:52:45;-4.20;85.57
74224;SHT31;62585;49.706;18.216;2022-12-18T01:55:12;-4.11;85.25
74224;SHT31;62585;49.706;18.216;2022-12-18T01:57:39;-4.08;85.06
74224;SHT31;62585;49.706;18.216;2022-12-18T02:00:12;-4.03;84.87
74224;SHT31;62585;49.706;18.216;2022-12-18T02:02:40;-4.15;84.89
74224;SHT31;62585;49.706;18.216;2022-12-18T02:05:07;-4.13;84.47
74224;SHT31;62585;49.706;18.216;2022-12-18T02:08:09;-4.16;85.08
74224;SHT31;62585;49.706;18.216;2022-12-18T02:13:35;-4.15;84.91
74224;SHT31;62585;49.706;18.216;2022-12-18T02:18:40;-4.20;85.52
74224;SHT31;62585;49.706;18.216;2022-12-18T02:26:22;-4.18;85.78
74224;SHT31;62585;49.706;18.216;2022-12-18T02:31:26;-4.16;85.11
74224;SHT31;62585;49.706;18.216;2022-12-18T02:33:55;-4.19;85.19
74224;SHT31;62585;49.706;18.216;2022-12-18T02:36:23;-4.25;85.67
74224;SHT31;62585;49.706;18.216;2022-12-18T02:38:50;-4.20;85.59
74224;SHT31;62585;49.706;18.216;2022-12-18T02:41:18;-4.16;85.71
74224;SHT31;62585;49.706;18.216;2022-12-18T02:43:53;-4.18;85.19
74224;SHT31;62585;49.706;18.216;2022-12-18T02:46:39;-4.23;85.31
74224;SHT31;62585;49.706;18.216;2022-12-18T02:49:15;-4.23;84.80
74224;SHT31;62585;49.706;18.216;2022-12-18T02:52:00;-4.26;85.14
74224;SHT31;62585;49.706;18.216;2022-12-18T03:00:07;-4.22;83.80
74224;SHT31;62585;49.706;18.216;2022-12-18T03:05:44;-4.20;84.45
74224;SHT31;62585;49.706;18.216;2022-12-18T03:08:17;-4.40;84.71
74224;SHT31;62585;49.706;18.216;2022-12-18T03:10:49;-4.32;83.47
74224;SHT31;62585;49.706;18.216;2022-12-18T03:13:23;-4.34;83.45
74224;SHT31;62585;49.706;18.216;2022-12-18T03:15:53;-4.28;83.58
74224;SHT31;62585;49.706;18.216;2022-12-18T03:18:41;-4.30;83.72
74224;SHT31;62585;49.706;18.216;2022-12-18T03:21:09;-4.32;84.56
74224;SHT31;62585;49.706;18.216;2022-12-18T03:23:41;-4.37;85.29
74224;SHT31;62585;49.706;18.216;2022-12-18T03:26:11;-4.43;85.40
74224;SHT31;62585;49.706;18.216;2022-12-18T03:28:44;-4.39;84.98
74224;SHT31;62585;49.706;18.216;2022-12-18T03:31:12;-4.40;85.33
74224;SHT31;62585;49.706;18.216;2022-12-18T03:33:45;-4.39;85.67
74224;SHT31;62585;49.706;18.216;2022-12-18T03:36:11;-4.33;85.07
74224;SHT31;62585;49.706;18.216;2022-12-18T03:38:37;-4.29;84.45
74224;SHT31;62585;49.706;18.216;2022-12-18T03:41:11;-4.34;84.94
74224;SHT31;62585;49.706;18.216;2022-12-18T03:43:54;-4.33;85.11
74224;SHT31;62585;49.706;18.216;2022-12-18T03:46:36;-4.30;85.45
74224;SHT31;62585;49.706;18.216;2022-12-18T03:49:14;-4.32;85.67
74224;SHT31;62585;49.706;18.216;2022-12-18T03:51:49;-4.32;84.55
74224;SHT31;62585;49.706;18.216;2022-12-18T03:54:17;-4.45;84.34
74224;SHT31;62585;49.706;18.216;2022-12-18T03:56:49;-4.50;84.43
74224;SHT31;62585;49.706;18.216;2022-12-18T03:59:18;-4.54;84.83
74224;SHT31;62585;49.706;18.216;2022-12-18T04:01:49;-4.56;84.79
74224;SHT31;62585;49.706;18.216;2022-12-18T04:04:17;-4.59;85.00
74224;SHT31;62585;49.706;18.216;2022-12-18T04:06:46;-4.57;85.00
74224;SHT31;62585;49.706;18.216;2022-12-18T04:09:13;-4.60;85.36
74224;SHT31;62585;49.706;18.216;2022-12-18T04:11:41;-4.50;85.28
74224;SHT31;62585;49.706;18.216;2022-12-18T04:14:09;-4.47;85.82
74224;SHT31;62585;49.706;18.216;2022-12-18T04:16:35;-4.45;85.46
74224;SHT31;62585;49.706;18.216;2022-12-18T04:19:01;-4.45;85.11
74224;SHT31;62585;49.706;18.216;2022-12-18T04:21:27;-4.43;85.01
74224;SHT31;62585;49.706;18.216;2022-12-18T04:23:52;-4.45;84.80
74224;SHT31;62585;49.706;18.216;2022-12-18T04:26:18;-4.46;85.07
74224;SHT31;62585;49.706;18.216;2022-12-18T04:28:44;-4.43;85.37
74224;SHT31;62585;49.706;18.216;2022-12-18T04:31:10;-4.47;84.26
74224;SHT31;62585;49.706;18.216;2022-12-18T04:33:35;-4.43;84.72
74224;SHT31;62585;49.706;18.216;2022-12-18T04:36:01;-4.43;84.83
74224;SHT31;62585;49.706;18.216;2022-12-18T04:38:27;-4.47;84.88
74224;SHT31;62585;49.706;18.216;2022-12-18T04:40:53;-4.47;85.10
74224;SHT31;62585;49.706;18.216;2022-12-18T04:43:18;-4.53;84.89
74224;SHT31;62585;49.706;18.216;2022-12-18T04:45:44;-4.50;84.21
74224;SHT31;62585;49.706;18.216;2022-12-18T04:48:10;-4.56;84.37
74224;SHT31;62585;49.706;18.216;2022-12-18T04:50:36;-4.56;84.28
74224;SHT31;62585;49.706;18.216;2022-12-18T04:53:01;-4.50;83.99
74224;SHT31;62585;49.706;18.216;2022-12-18T04:55:27;-4.47;83.97
74224;SHT31;62585;49.706;18.216;2022-12-18T04:57:53;-4.39;83.98
74224;SHT31;62585;49.706;18.216;2022-12-18T05:00:19;-4.47;84.16
74224;SHT31;62585;49.706;18.216;2022-12-18T05:02:45;-4.52;83.77
74224;SHT31;62585;49.706;18.216;2022-12-18T05:05:11;-4.47;84.21
74224;SHT31;62585;49.706;18.216;2022-12-18T05:07:37;-4.49;84.43
74224;SHT31;62585;49.706;18.216;2022-12-18T05:10:03;-4.53;84.63
74224;SHT31;62585;49.706;18.216;2022-12-18T05:12:30;-4.54;85.32
74224;SHT31;62585;49.706;18.216;2022-12-18T05:14:56;-4.53;84.78
74224;SHT31;62585;49.706;18.216;2022-12-18T05:17:22;-4.57;84.71
74224;SHT31;62585;49.706;18.216;2022-12-18T05:19:48;-4.56;84.95
74224;SHT31;62585;49.706;18.216;2022-12-18T05:22:13;-4.54;84.94
74224;SHT31;62585;49.706;18.216;2022-12-18T05:24:39;-4.60;84.85
74224;SHT31;62585;49.706;18.216;2022-12-18T05:27:05;-4.57;85.42
74224;SHT31;62585;49.706;18.216;2022-12-18T05:29:30;-4.56;85.02
74224;SHT31;62585;49.706;18.216;2022-12-18T05:31:56;-4.53;85.46
74224;SHT31;62585;49.706;18.216;2022-12-18T05:34:22;-4.49;84.61
74224;SHT31;62585;49.706;18.216;2022-12-18T05:36:47;-4.54;84.92
74224;SHT31;62585;49.706;18.216;2022-12-18T05:39:13;-4.53;84.85
74224;SHT31;62585;49.706;18.216;2022-12-18T05:41:39;-4.54;85.00
74224;SHT31;62585;49.706;18.216;2022-12-18T05:44:05;-4.54;84.95
74224;SHT31;62585;49.706;18.216;2022-12-18T05:46:30;-4.54;85.08
74224;SHT31;62585;49.706;18.216;2022-12-18T05:48:59;-4.57;85.20
74224;SHT31;62585;49.706;18.216;2022-12-18T05:51:26;-4.63;84.66
74224;SHT31;62585;49.706;18.216;2022-12-18T05:53:52;-4.63;84.55
74224;SHT31;62585;49.706;18.216;2022-12-18T05:56:20;-4.57;85.07
74224;SHT31;62585;49.706;18.216;2022-12-18T05:58:46;-4.53;85.11
74224;SHT31;62585;49.706;18.216;2022-12-18T06:01:17;-4.53;85.40
74224;SHT31;62585;49.706;18.216;2022-12-18T06:03:44;-4.67;85.21
74224;SHT31;62585;49.706;18.216;2022-12-18T06:08:39;-4.53;85.66
74224;SHT31;62585;49.706;18.216;2022-12-18T06:11:04;-4.60;85.24
74224;SHT31;62585;49.706;18.216;2022-12-18T06:13:30;-4.56;85.23
74224;SHT31;62585;49.706;18.216;2022-12-18T06:15:56;-4.60;85.35
74224;SHT31;62585;49.706;18.216;2022-12-18T06:18:22;-4.54;84.99
74224;SHT31;62585;49.706;18.216;2022-12-18T06:20:57;-4.60;84.72
74224;SHT31;62585;49.706;18.216;2022-12-18T06:23:24;-4.56;84.90
74224;SHT31;62585;49.706;18.216;2022-12-18T06:25:50;-4.56;84.79
74224;SHT31;62585;49.706;18.216;2022-12-18T06:28:16;-4.59;85.41
74224;SHT31;62585;49.706;18.216;2022-12-18T06:30:48;-4.57;85.38
74224;SHT31;62585;49.706;18.216;2022-12-18T06:33:15;-4.57;85.46
74224;SHT31;62585;49.706;18.216;2022-12-18T06:35:41;-4.47;85.29
74224;SHT31;62585;49.706;18.216;2022-12-18T06:38:07;-4.54;85.13
74224;SHT31;62585;49.706;18.216;2022-12-18T06:40:33;-4.49;85.24
74224;SHT31;62585;49.706;18.216;2022-12-18T06:42:59;-4.52;85.00
74224;SHT31;62585;49.706;18.216;2022-12-18T06:45:24;-4.49;85.48
74224;SHT31;62585;49.706;18.216;2022-12-18T06:47:50;-4.46;85.41
74224;SHT31;62585;49.706;18.216;2022-12-18T06:50:16;-4.47;85.12
74224;SHT31;62585;49.706;18.216;2022-12-18T06:52:42;-4.43;84.71
74224;SHT31;62585;49.706;18.216;2022-12-18T06:55:10;-4.42;85.01
74224;SHT31;62585;49.706;18.216;2022-12-18T06:57:36;-4.40;84.93
74224;SHT31;62585;49.706;18.216;2022-12-18T07:00:04;-4.39;84.84
74224;SHT31;62585;49.706;18.216;2022-12-18T07:02:31;-4.39;85.09
74224;SHT31;62585;49.706;18.216;2022-12-18T07:04:56;-4.42;84.89
74224;SHT31;62585;49.706;18.216;2022-12-18T07:07:22;-4.46;84.50
74224;SHT31;62585;49.706;18.216;2022-12-18T07:09:49;-4.42;84.87
74224;SHT31;62585;49.706;18.216;2022-12-18T07:12:15;-4.42;84.52
74224;SHT31;62585;49.706;18.216;2022-12-18T07:14:41;-4.39;84.29
74224;SHT31;62585;49.706;18.216;2022-12-18T07:17:07;-4.37;84.61
74224;SHT31;62585;49.706;18.216;2022-12-18T07:19:33;-4.36;84.63
74224;SHT31;62585;49.706;18.216;2022-12-18T07:21:59;-4.36;84.87
74224;SHT31;62585;49.706;18.216;2022-12-18T07:24:25;-4.29;84.43
74224;SHT31;62585;49.706;18.216;2022-12-18T07:26:50;-4.30;84.62
74224;SHT31;62585;49.706;18.216;2022-12-18T07:29:16;-4.28;84.40
74224;SHT31;62585;49.706;18.216;2022-12-18T07:31:42;-4.20;84.34
74224;SHT31;62585;49.706;18.216;2022-12-18T07:34:12;-4.26;83.94
74224;SHT31;62585;49.706;18.216;2022-12-18T07:36:38;-4.25;83.91
74224;SHT31;62585;49.706;18.216;2022-12-18T07:39:04;-4.22;83.99
74224;SHT31;62585;49.706;18.216;2022-12-18T07:41:30;-4.20;83.73
74224;SHT31;62585;49.706;18.216;2022-12-18T07:43:55;-4.19;84.07
74224;SHT31;62585;49.706;18.216;2022-12-18T07:46:21;-4.20;83.96
74224;SHT31;62585;49.706;18.216;2022-12-18T07:48:47;-4.19;83.37
74224;SHT31;62585;49.706;18.216;2022-12-18T07:51:13;-4.16;83.00
74224;SHT31;62585;49.706;18.216;2022-12-18T07:53:39;-4.23;83.65
74224;SHT31;62585;49.706;18.216;2022-12-18T07:56:08;-4.19;83.85
74224;SHT31;62585;49.706;18.216;2022-12-18T07:58:35;-4.30;83.96
74224;SHT31;62585;49.706;18.216;2022-12-18T08:01:09;-4.32;83.56
74224;SHT31;62585;49.706;18.216;2022-12-18T08:03:36;-4.23;83.97
74224;SHT31;62585;49.706;18.216;2022-12-18T08:06:03;-4.19;83.50
74224;SHT31;62585;49.706;18.216;2022-12-18T08:08:30;-4.19;83.64
74224;SHT31;62585;49.706;18.216;2022-12-18T08:10:57;-4.26;83.13
74224;SHT31;62585;49.706;18.216;2022-12-18T08:13:23;-4.18;82.90
74224;SHT31;62585;49.706;18.216;2022-12-18T08:18:22;-4.08;82.77
74224;SHT31;62585;49.706;18.216;2022-12-18T08:20:48;-4.15;82.96
74224;SHT31;62585;49.706;18.216;2022-12-18T08:23:13;-4.02;82.18
74224;SHT31;62585;49.706;18.216;2022-12-18T08:25:39;-4.02;81.93
74224;SHT31;62585;49.706;18.216;2022-12-18T08:28:05;-3.95;81.69
74224;SHT31;62585;49.706;18.216;2022-12-18T08:30:31;-3.90;81.58
74224;SHT31;62585;49.706;18.216;2022-12-18T08:32:56;-3.88;81.41
74224;SHT31;62585;49.706;18.216;2022-12-18T08:35:22;-3.85;81.35
74224;SHT31;62585;49.706;18.216;2022-12-18T08:37:48;-3.82;81.16
74224;SHT31;62585;49.706;18.216;2022-12-18T08:40:14;-3.98;81.69
74224;SHT31;62585;49.706;18.216;2022-12-18T08:42:39;-3.94;81.63
74224;SHT31;62585;49.706;18.216;2022-12-18T08:45:24;-3.95;82.36
74224;SHT31;62585;49.706;18.216;2022-12-18T08:47:50;-4.08;82.64
74224;SHT31;62585;49.706;18.216;2022-12-18T08:50:16;-4.15;82.16
74224;SHT31;62585;49.706;18.216;2022-12-18T08:52:41;-4.16;82.66
74224;SHT31;62585;49.706;18.216;2022-12-18T08:55:08;-4.23;83.46
74224;SHT31;62585;49.706;18.216;2022-12-18T08:57:34;-4.11;83.32
74224;SHT31;62585;49.706;18.216;2022-12-18T09:00:00;-4.13;83.56
74224;SHT31;62585;49.706;18.216;2022-12-18T09:02:26;-4.08;83.38
74224;SHT31;62585;49.706;18.216;2022-12-18T09:04:52;-4.12;83.20
74224;SHT31;62585;49.706;18.216;2022-12-18T09:07:17;-4.20;82.97
74224;SHT31;62585;49.706;18.216;2022-12-18T09:09:43;-4.06;82.55
74224;SHT31;62585;49.706;18.216;2022-12-18T09:12:09;-4.01;82.18
74224;SHT31;62585;49.706;18.216;2022-12-18T09:14:35;-3.97;82.20
74224;SHT31;62585;49.706;18.216;2022-12-18T09:17:01;-3.94;82.26
74224;SHT31;62585;49.706;18.216;2022-12-18T09:19:27;-3.85;81.93
74224;SHT31;62585;49.706;18.216;2022-12-18T09:21:52;-3.88;81.99
74224;SHT31;62585;49.706;18.216;2022-12-18T09:24:18;-3.73;82.02
74224;SHT31;62585;49.706;18.216;2022-12-18T09:26:45;-3.74;81.20
74224;SHT31;62585;49.706;18.216;2022-12-18T09:29:11;-3.77;81.21
74224;SHT31;62585;49.706;18.216;2022-12-18T09:31:38;-3.78;81.53
74224;SHT31;62585;49.706;18.216;2022-12-18T09:34:04;-3.75;81.13
74224;SHT31;62585;49.706;18.216;2022-12-18T09:36:29;-3.75;81.17
74224;SHT31;62585;49.706;18.216;2022-12-18T09:38:55;-3.73;81.37
74224;SHT31;62585;49.706;18.216;2022-12-18T09:41:54;-3.70;81.17
74224;SHT31;62585;49.706;18.216;2022-12-18T09:46:58;-3.71;80.85
74224;SHT31;62585;49.706;18.216;2022-12-18T09:49:27;-3.67;81.38
74224;SHT31;62585;49.706;18.216;2022-12-18T09:51:58;-3.80;81.09
74224;SHT31;62585;49.706;18.216;2022-12-18T09:54:39;-3.71;80.94
74224;SHT31;62585;49.706;18.216;2022-12-18T09:57:05;-3.68;80.77
74224;SHT31;62585;49.706;18.216;2022-12-18T09:59:37;-3.75;81.07
74224;SHT31;62585;49.706;18.216;2022-12-18T10:02:18;-3.73;81.09
74224;SHT31;62585;49.706;18.216;2022-12-18T10:05:11;-3.60;80.56
74224;SHT31;62585;49.706;18.216;2022-12-18T10:07:47;-3.42;80.36
74224;SHT31;62585;49.706;18.216;2022-12-18T10:15:30;-3.46;79.61
74224;SHT31;62585;49.706;18.216;2022-12-18T10:18:14;-3.44;80.27
74224;SHT31;62585;49.706;18.216;2022-12-18T10:20:45;-3.29;79.75
74224;SHT31;62585;49.706;18.216;2022-12-18T10:23:28;-3.35;79.40
74224;SHT31;62585;49.706;18.216;2022-12-18T10:26:09;-3.29;78.35
74224;SHT31;62585;49.706;18.216;2022-12-18T10:28:37;-3.31;78.54
74224;SHT31;62585;49.706;18.216;2022-12-18T10:31:22;-3.43;79.10
74224;SHT31;62585;49.706;18.216;2022-12-18T10:33:49;-3.49;79.36
74224;SHT31;62585;49.706;18.216;2022-12-18T10:36:15;-3.54;79.49
74224;SHT31;62585;49.706;18.216;2022-12-18T10:38:40;-3.42;79.80
74224;SHT31;62585;49.706;18.216;2022-12-18T10:41:24;-3.59;78.86
74224;SHT31;62585;49.706;18.216;2022-12-18T10:44:16;-3.31;78.52
74224;SHT31;62585;49.706;18.216;2022-12-18T10:46:45;-3.16;78.79
74224;SHT31;62585;49.706;18.216;2022-12-18T10:49:26;-3.26;78.83
74224;SHT31;62585;49.706;18.216;2022-12-18T10:52:06;-3.39;79.76
74224;SHT31;62585;49.706;18.216;2022-12-18T10:54:33;-3.40;79.16
74224;SHT31;62585;49.706;18.216;2022-12-18T10:57:42;-3.29;79.12
74224;SHT31;62585;49.706;18.216;2022-12-18T10:59:54;-3.52;79.80
74224;SHT31;62585;49.706;18.216;2022-12-18T11:02:38;-3.43;79.75
74224;SHT31;62585;49.706;18.216;2022-12-18T11:05:26;-3.38;78.90
74224;SHT31;62585;49.706;18.216;2022-12-18T11:07:52;-3.33;78.84
74224;SHT31;62585;49.706;18.216;2022-12-18T11:10:26;-3.38;78.40
74224;SHT31;62585;49.706;18.216;2022-12-18T11:12:53;-3.43;78.78
74224;SHT31;62585;49.706;18.216;2022-12-18T11:15:23;-3.35;78.47
74224;SHT31;62585;49.706;18.216;2022-12-18T11:17:51;-3.29;78.83
74224;SHT31;62585;49.706;18.216;2022-12-18T11:20:34;-3.28;78.34
74224;SHT31;62585;49.706;18.216;2022-12-18T11:23:05;-3.44;77.68
74224;SHT31;62585;49.706;18.216;2022-12-18T11:25:32;-3.22;79.13
74224;SHT31;62585;49.706;18.216;2022-12-18T11:28:25;-3.38;77.48
74224;SHT31;62585;49.706;18.216;2022-12-18T11:31:08;-3.39;77.98
74224;SHT31;62585;49.706;18.216;2022-12-18T11:33:35;-3.33;78.29
74224;SHT31;62585;49.706;18.216;2022-12-18T11:36:04;-3.33;78.63
74224;SHT31;62585;49.706;18.216;2022-12-18T11:38:38;-3.33;78.46
74224;SHT31;62585;49.706;18.216;2022-12-18T11:43:41;-3.19;79.22
74224;SHT31;62585;49.706;18.216;2022-12-18T11:46:13;-3.17;78.12
74224;SHT31;62585;49.706;18.216;2022-12-18T11:49:28;-3.29;78.53
74224;SHT31;62585;49.706;18.216;2022-12-18T11:54:35;-3.31;79.24
74224;SHT31;62585;49.706;18.216;2022-12-18T11:57:20;-3.23;79.45
74224;SHT31;62585;49.706;18.216;2022-12-18T12:10:57;-3.02;76.77
74224;SHT31;62585;49.706;18.216;2022-12-18T12:26:35;-3.23;78.64
74224;SHT31;62585;49.706;18.216;2022-12-18T12:39:48;-3.32;78.28
74224;SHT31;62585;49.706;18.216;2022-12-18T12:42:39;-3.46;78.94
74224;SHT31;62585;49.706;18.216;2022-12-18T12:45:40;-3.49;79.08
74224;SHT31;62585;49.706;18.216;2022-12-18T12:48:16;-3.52;79.58
74224;SHT31;62585;49.706;18.216;2022-12-18T12:50:42;-3.43;79.19
74224;SHT31;62585;49.706;18.216;2022-12-18T12:53:19;-3.44;78.83
74224;SHT31;62585;49.706;18.216;2022-12-18T12:55:50;-3.43;78.70
74224;SHT31;62585;49.706;18.216;2022-12-18T13:01:28;-3.53;78.70
74224;SHT31;62585;49.706;18.216;2022-12-18T13:07:06;-3.57;78.25
74224;SHT31;62585;49.706;18.216;2022-12-18T13:12:57;-3.49;78.45
74224;SHT31;62585;49.706;18.216;2022-12-18T13:15:44;-3.63;77.23
74224;SHT31;62585;49.706;18.216;2022-12-18T13:18:19;-3.74;77.98
74224;SHT31;62585;49.706;18.216;2022-12-18T13:34:25;0.33;63.69
74224;SHT31;62585;49.706;18.216;2022-12-18T13:36:52;0.30;62.30
74224;SHT31;62585;49.706;18.216;2022-12-18T13:41:45;0.45;61.40
74224;SHT31;62585;49.706;18.216;2022-12-18T13:44:24;0.15;61.90
74224;SHT31;62585;49.706;18.216;2022-12-18T13:46:51;0.08;62.25
74224;SHT31;62585;49.706;18.216;2022-12-18T13:49:24;0.11;62.34
74224;SHT31;62585;49.706;18.216;2022-12-18T13:51:52;-0.12;62.77
74224;SHT31;62585;49.706;18.216;2022-12-18T13:54:35;-0.37;63.66
74224;SHT31;62585;49.706;18.216;2022-12-18T13:57:03;-0.64;64.22
74224;SHT31;62585;49.706;18.216;2022-12-18T13:59:36;-0.68;65.03
74224;SHT31;62585;49.706;18.216;2022-12-18T14:02:16;-0.72;64.50
74224;SHT31;62585;49.706;18.216;2022-12-18T14:04:45;-0.78;64.36
74224;SHT31;62585;49.706;18.216;2022-12-18T14:07:18;-0.88;64.41
74224;SHT31;62585;49.706;18.216;2022-12-18T14:09:47;-1.06;64.87
74224;SHT31;62585;49.706;18.216;2022-12-18T14:12:35;-1.29;65.57
74224;SHT31;62585;49.706;18.216;2022-12-18T14:17:53;-1.92;67.60
74224;SHT31;62585;49.706;18.216;2022-12-18T14:20:20;-2.02;67.99
74224;SHT31;62585;49.706;18.216;2022-12-18T14:22:47;-2.22;68.45
74224;SHT31;62585;49.706;18.216;2022-12-18T14:25:25;-2.44;68.89
74224;SHT31;62585;49.706;18.216;2022-12-18T14:30:37;-3.20;71.76
74224;SHT31;62585;49.706;18.216;2022-12-18T14:33:08;-3.53;72.63
74224;SHT31;62585;49.706;18.216;2022-12-18T14:35:37;-3.87;73.31
74224;SHT31;62585;49.706;18.216;2022-12-18T14:40:43;-4.29;74.28
74224;SHT31;62585;49.706;18.216;2022-12-18T14:43:11;-4.46;75.69
74224;SHT31;62585;49.706;18.216;2022-12-18T14:45:39;-4.71;76.71
74224;SHT31;62585;49.706;18.216;2022-12-18T14:50:42;-5.01;77.55
74224;SHT31;62585;49.706;18.216;2022-12-18T14:53:23;-5.01;76.97
74224;SHT31;62585;49.706;18.216;2022-12-18T14:55:52;-5.08;77.00
74224;SHT31;62585;49.706;18.216;2022-12-18T14:58:18;-5.16;76.19
74224;SHT31;62585;49.706;18.216;2022-12-18T15:00:44;-5.25;76.96
74224;SHT31;62585;49.706;18.216;2022-12-18T15:03:10;-5.30;76.82
74224;SHT31;62585;49.706;18.216;2022-12-18T15:05:35;-5.37;76.70
74224;SHT31;62585;49.706;18.216;2022-12-18T15:08:02;-5.52;77.31
74224;SHT31;62585;49.706;18.216;2022-12-18T15:10:30;-5.63;78.02
74224;SHT31;62585;49.706;18.216;2022-12-18T15:20:58;-6.01;77.53
74224;SHT31;62585;49.706;18.216;2022-12-18T15:23:28;-6.15;78.05
74224;SHT31;62585;49.706;18.216;2022-12-18T15:25:56;-6.29;78.18
74224;SHT31;62585;49.706;18.216;2022-12-18T15:31:22;-6.47;79.87
74224;SHT31;62585;49.706;18.216;2022-12-18T15:36:19;-6.66;80.47
74224;SHT31;62585;49.706;18.216;2022-12-18T15:38:49;-6.80;80.64
74224;SHT31;62585;49.706;18.216;2022-12-18T15:41:17;-6.79;80.53
74224;SHT31;62585;49.706;18.216;2022-12-18T15:43:44;-6.81;80.63
74224;SHT31;62585;49.706;18.216;2022-12-18T15:46:11;-6.88;81.46
74224;SHT31;62585;49.706;18.216;2022-12-18T15:48:43;-7.01;81.48
74224;SHT31;62585;49.706;18.216;2022-12-18T15:51:16;-7.08;81.27
74224;SHT31;62585;49.706;18.216;2022-12-18T15:53:42;-7.13;80.89
74224;SHT31;62585;49.706;18.216;2022-12-18T15:56:13;-7.28;80.41
74224;SHT31;62585;49.706;18.216;2022-12-18T15:58:58;-7.33;81.50
74224;SHT31;62585;49.706;18.216;2022-12-18T16:01:26;-7.44;81.86
74224;SHT31;62585;49.706;18.216;2022-12-18T16:03:52;-7.50;82.19
74224;SHT31;62585;49.706;18.216;2022-12-18T16:06:19;-7.63;82.09
74224;SHT31;62585;49.706;18.216;2022-12-18T16:08:45;-7.70;83.06
74224;SHT31;62585;49.706;18.216;2022-12-18T16:11:24;-7.77;81.82
74224;SHT31;62585;49.706;18.216;2022-12-18T16:14:16;-7.97;81.25
74224;SHT31;62585;49.706;18.216;2022-12-18T16:16:44;-8.02;81.99
74224;SHT31;62585;49.706;18.216;2022-12-18T16:19:09;-8.11;83.86
74224;SHT31;62585;49.706;18.216;2022-12-18T16:21:35;-8.16;84.61
74224;SHT31;62585;49.706;18.216;2022-12-18T16:24:01;-8.18;85.44
74224;SHT31;62585;49.706;18.216;2022-12-18T16:26:26;-8.16;86.65
74224;SHT31;62585;49.706;18.216;2022-12-18T16:28:52;-8.12;86.89
74224;SHT31;62585;49.706;18.216;2022-12-18T16:31:19;-8.05;86.41
74224;SHT31;62585;49.706;18.216;2022-12-18T16:33:45;-8.04;86.98
74224;SHT31;62585;49.706;18.216;2022-12-18T16:36:10;-8.05;85.87
74224;SHT31;62585;49.706;18.216;2022-12-18T16:38:36;-8.08;83.06
74224;SHT31;62585;49.706;18.216;2022-12-18T16:41:01;-8.21;81.10
74224;SHT31;62585;49.706;18.216;2022-12-18T16:43:50;-8.36;83.59
74224;SHT31;62585;49.706;18.216;2022-12-18T16:46:17;-8.43;84.39
74224;SHT31;62585;49.706;18.216;2022-12-18T16:48:43;-8.42;86.81
74224;SHT31;62585;49.706;18.216;2022-12-18T16:51:08;-8.36;86.68
74224;SHT31;62585;49.706;18.216;2022-12-18T16:53:34;-8.36;86.80
74224;SHT31;62585;49.706;18.216;2022-12-18T16:55:59;-8.29;87.21
74224;SHT31;62585;49.706;18.216;2022-12-18T16:58:28;-8.28;87.56
74224;SHT31;62585;49.706;18.216;2022-12-18T17:00:54;-8.24;87.55
74224;SHT31;62585;49.706;18.216;2022-12-18T17:03:20;-8.28;86.71
74224;SHT31;62585;49.706;18.216;2022-12-18T17:05:45;-8.26;85.02
74224;SHT31;62585;49.706;18.216;2022-12-18T17:08:11;-8.32;82.39
74224;SHT31;62585;49.706;18.216;2022-12-18T17:10:37;-8.68;78.36
74224;SHT31;62585;49.706;18.216;2022-12-18T17:13:03;-8.97;77.68
74224;SHT31;62585;49.706;18.216;2022-12-18T17:15:28;-9.01;79.16
74224;SHT31;62585;49.706;18.216;2022-12-18T17:17:55;-9.12;80.34
74224;SHT31;62585;49.706;18.216;2022-12-18T17:20:20;-9.18;82.90
74224;SHT31;62585;49.706;18.216;2022-12-18T17:22:46;-9.25;84.29
74224;SHT31;62585;49.706;18.216;2022-12-18T17:25:15;-9.31;84.82
74224;SHT31;62585;49.706;18.216;2022-12-18T17:27:41;-9.36;86.90
74224;SHT31;62585;49.706;18.216;2022-12-18T17:30:07;-9.38;87.73
74224;SHT31;62585;49.706;18.216;2022-12-18T17:32:33;-9.31;87.82
74224;SHT31;62585;49.706;18.216;2022-12-18T17:34:58;-9.32;87.55
74224;SHT31;62585;49.706;18.216;2022-12-18T17:37:24;-9.43;86.05
74224;SHT31;62585;49.706;18.216;2022-12-18T17:39:50;-9.56;85.69